sensor_id;sensor_type;location;lat;lon;timestamp;pressure;altitude;pressure_sealevel;temperature;humidity
44385;BME280;30101;32.778;34.994;2023-02-17T00:02:09;98779.59;;;9.65;55.83
44385;BME280;30101;32.778;34.994;2023-02-17T00:07:12;98775.28;;;9.64;55.57
44385;BME280;30101;32.778;34.994;2023-02-17T00:12:15;98771.97;;;9.62;55.53
44385;BME280;30101;32.778;34.994;2023-02-17T00:17:18;98769.00;;;9.57;55.81
44385;BME280;30101;32.778;34.994;2023-02-17T00:22:22;98755.47;;;9.59;55.77
44385;BME280;30101;32.778;34.994;2023-02-17T00:27:25;98766.03;;;9.52;55.73
44385;BME280;30101;32.778;34.994;2023-02-17T00:32:28;98762.88;;;9.49;56.07
44385;BME280;30101;32.778;34.994;2023-02-17T00:37:34;98760.59;;;9.45;55.97
44385;BME280;30101;32.778;34.994;2023-02-17T00:42:37;98749.94;;;9.45;55.93
44385;BME280;30101;32.778;34.994;2023-02-17T00:47:40;98751.28;;;9.41;55.50
44385;BME280;30101;32.778;34.994;2023-02-17T00:52:44;98753.59;;;9.44;55.78
44385;BME280;30101;32.778;34.994;2023-02-17T00:57:47;98749.94;;;9.45;55.19
44385;BME280;30101;32.778;34.994;2023-02-17T01:02:51;98751.94;;;9.43;55.65
44385;BME280;30101;32.778;34.994;2023-02-17T01:07:54;98746.78;;;9.42;55.95
44385;BME280;30101;32.778;34.994;2023-02-17T01:12:58;98753.50;;;9.38;55.84
44385;BME280;30101;32.778;34.994;2023-02-17T01:18:01;98751.84;;;9.37;56.12
44385;BME280;30101;32.778;34.994;2023-02-17T01:23:04;98753.00;;;9.34;55.64
44385;BME280;30101;32.778;34.994;2023-02-17T01:28:10;98758.97;;;9.36;55.98
44385;BME280;30101;32.778;34.994;2023-02-17T01:33:16;98749.69;;;9.32;55.82
44385;BME280;30101;32.778;34.994;2023-02-17T01:38:20;98766.81;;;9.38;55.67
44385;BME280;30101;32.778;34.994;2023-02-17T01:43:24;98764.31;;;9.36;55.26
44385;BME280;30101;32.778;34.994;2023-02-17T01:48:31;98768.66;;;9.37;54.85
44385;BME280;30101;32.778;34.994;2023-02-17T01:53:40;98760.81;;;9.36;55.21
44385;BME280;30101;32.778;34.994;2023-02-17T01:58:49;98768.66;;;9.37;55.00
44385;BME280;30101;32.778;34.994;2023-02-17T02:03:54;98774.13;;;9.36;54.91
44385;BME280;30101;32.778;34.994;2023-02-17T02:09:02;98774.31;;;9.34;55.20
44385;BME280;30101;32.778;34.994;2023-02-17T02:14:07;98778.00;;;9.33;54.73
44385;BME280;30101;32.778;34.994;2023-02-17T02:36:09;98786.94;;;9.40;54.80
44385;BME280;30101;32.778;34.994;2023-02-17T02:41:22;98782.63;;;9.39;54.37
44385;BME280;30101;32.778;34.994;2023-02-17T02:46:27;98780.78;;;9.40;54.74
44385;BME280;30101;32.778;34.994;2023-02-17T02:51:48;98789.41;;;9.42;54.51
44385;BME280;30101;32.778;34.994;2023-02-17T02:57:12;98786.75;;;9.42;54.37
44385;BME280;30101;32.778;34.994;2023-02-17T03:03:11;98795.56;;;9.42;54.74
44385;BME280;30101;32.778;34.994;2023-02-17T03:07:58;98798.63;;;9.39;54.52
44385;BME280;30101;32.778;34.994;2023-02-17T03:13:04;98800.44;;;9.39;54.39
44385;BME280;30101;32.778;34.994;2023-02-17T03:18:07;98801.47;;;9.38;54.58
44385;BME280;30101;32.778;34.994;2023-02-17T03:23:11;98807.97;;;9.35;54.73
44385;BME280;30101;32.778;34.994;2023-02-17T03:28:14;98816.78;;;9.36;54.44
44385;BME280;30101;32.778;34.994;2023-02-17T03:33:17;98816.78;;;9.36;54.98
44385;BME280;30101;32.778;34.994;2023-02-17T03:38:20;98818.81;;;9.34;54.81
44385;BME280;30101;32.778;34.994;2023-02-17T03:43:24;98814.13;;;9.36;54.88
44385;BME280;30101;32.778;34.994;2023-02-17T03:48:27;98832.44;;;9.39;55.03
44385;BME280;30101;32.778;34.994;2023-02-17T03:53:30;98834.09;;;9.40;54.62
44385;BME280;30101;32.778;34.994;2023-02-17T03:58:33;98833.44;;;9.38;54.90
44385;BME280;30101;32.778;34.994;2023-02-17T04:03:37;98835.94;;;9.39;54.99
44385;BME280;30101;32.778;34.994;2023-02-17T04:08:41;98830.41;;;9.41;54.84
44385;BME280;30101;32.778;34.994;2023-02-17T04:13:44;98829.78;;;9.39;54.85
44385;BME280;30101;32.778;34.994;2023-02-17T04:18:47;98840.44;;;9.39;54.48
44385;BME280;30101;32.778;34.994;2023-02-17T04:23:51;98849.91;;;9.41;55.16
44385;BME280;30101;32.778;34.994;2023-02-17T04:28:55;98843.28;;;9.37;55.08
44385;BME280;30101;32.778;34.994;2023-02-17T04:33:58;98850.56;;;9.43;55.06
44385;BME280;30101;32.778;34.994;2023-02-17T04:39:01;98858.38;;;9.45;55.08
44385;BME280;30101;32.778;34.994;2023-02-17T04:44:04;98848.19;;;9.49;55.00
44385;BME280;30101;32.778;34.994;2023-02-17T04:49:07;98851.34;;;9.52;54.71
44385;BME280;30101;32.778;34.994;2023-02-17T04:54:11;98853.63;;;9.55;55.05
44385;BME280;30101;32.778;34.994;2023-02-17T04:59:14;98866.75;;;9.65;54.83
44385;BME280;30101;32.778;34.994;2023-02-17T05:04:17;98862.38;;;9.72;54.89
44385;BME280;30101;32.778;34.994;2023-02-17T05:09:20;98860.84;;;9.78;54.63
44385;BME280;30101;32.778;34.994;2023-02-17T05:14:25;98876.97;;;9.84;54.54
44385;BME280;30101;32.778;34.994;2023-02-17T05:19:28;98876.06;;;9.92;54.80
44385;BME280;30101;32.778;34.994;2023-02-17T05:24:32;98882.81;;;10.03;54.02
44385;BME280;30101;32.778;34.994;2023-02-17T05:29:35;98882.75;;;10.11;54.57
44385;BME280;30101;32.778;34.994;2023-02-17T05:34:38;98890.34;;;10.22;53.42
44385;BME280;30101;32.778;34.994;2023-02-17T05:39:42;98895.47;;;10.32;54.08
44385;BME280;30101;32.778;34.994;2023-02-17T05:44:45;98896.69;;;10.44;54.18
44385;BME280;30101;32.778;34.994;2023-02-17T05:49:48;98887.59;;;10.68;54.01
44385;BME280;30101;32.778;34.994;2023-02-17T05:54:51;98900.88;;;10.91;52.99
44385;BME280;30101;32.778;34.994;2023-02-17T05:59:54;98902.19;;;10.95;53.64
44385;BME280;30101;32.778;34.994;2023-02-17T06:04:58;98900.88;;;11.05;52.75
44385;BME280;30101;32.778;34.994;2023-02-17T06:10:01;98907.63;;;11.16;52.25
44385;BME280;30101;32.778;34.994;2023-02-17T06:15:05;98906.59;;;11.32;51.43
44385;BME280;30101;32.778;34.994;2023-02-17T06:20:09;98905.75;;;11.46;51.76
44385;BME280;30101;32.778;34.994;2023-02-17T06:25:12;98914.97;;;11.80;50.65
44385;BME280;30101;32.778;34.994;2023-02-17T06:30:15;98914.63;;;11.83;51.14
44385;BME280;30101;32.778;34.994;2023-02-17T06:35:18;98926.50;;;11.95;50.73
44385;BME280;30101;32.778;34.994;2023-02-17T06:40:22;98929.03;;;12.03;50.41
44385;BME280;30101;32.778;34.994;2023-02-17T06:45:25;98927.88;;;11.91;50.61
44385;BME280;30101;32.778;34.994;2023-02-17T06:50:30;98927.81;;;11.84;50.41
44385;BME280;30101;32.778;34.994;2023-02-17T06:55:33;98926.81;;;12.28;49.80
44385;BME280;30101;32.778;34.994;2023-02-17T07:00:37;98930.03;;;13.70;46.58
44385;BME280;30101;32.778;34.994;2023-02-17T07:05:40;98935.97;;;13.59;46.56
44385;BME280;30101;32.778;34.994;2023-02-17T07:10:43;98933.41;;;12.82;48.94
44385;BME280;30101;32.778;34.994;2023-02-17T07:15:46;98937.94;;;12.53;49.85
44385;BME280;30101;32.778;34.994;2023-02-17T07:20:49;98941.59;;;12.46;49.86
44385;BME280;30101;32.778;34.994;2023-02-17T07:25:55;98945.88;;;12.40;49.18
44385;BME280;30101;32.778;34.994;2023-02-17T07:31:04;98947.13;;;12.44;49.59
44385;BME280;30101;32.778;34.994;2023-02-17T07:36:10;98942.03;;;12.49;48.93
44385;BME280;30101;32.778;34.994;2023-02-17T07:41:16;98947.44;;;12.56;48.83
44385;BME280;30101;32.778;34.994;2023-02-17T07:46:20;98951.72;;;13.06;47.79
44385;BME280;30101;32.778;34.994;2023-02-17T07:51:26;98956.03;;;13.29;47.47
44385;BME280;30101;32.778;34.994;2023-02-17T07:56:30;98946.72;;;13.25;47.54
44385;BME280;30101;32.778;34.994;2023-02-17T08:01:33;98958.81;;;13.14;47.92
44385;BME280;30101;32.778;34.994;2023-02-17T08:06:37;98956.31;;;13.12;47.80
44385;BME280;30101;32.778;34.994;2023-02-17T08:11:41;98953.44;;;13.14;47.84
44385;BME280;30101;32.778;34.994;2023-02-17T08:16:47;98954.44;;;13.13;47.77
44385;BME280;30101;32.778;34.994;2023-02-17T08:21:51;98963.56;;;13.18;48.24
44385;BME280;30101;32.778;34.994;2023-02-17T08:26:54;98965.69;;;13.23;47.88
44385;BME280;30101;32.778;34.994;2023-02-17T08:32:00;98958.03;;;13.20;47.67
44385;BME280;30101;32.778;34.994;2023-02-17T08:37:06;98961.97;;;13.24;47.36
44385;BME280;30101;32.778;34.994;2023-02-17T08:42:10;98964.09;;;13.29;47.29
44385;BME280;30101;32.778;34.994;2023-02-17T08:47:14;98960.59;;;13.35;47.27
44385;BME280;30101;32.778;34.994;2023-02-17T08:52:17;98962.28;;;13.42;47.38
44385;BME280;30101;32.778;34.994;2023-02-17T08:57:20;98952.63;;;13.48;47.74
44385;BME280;30101;32.778;34.994;2023-02-17T09:02:23;98945.66;;;13.60;47.38
44385;BME280;30101;32.778;34.994;2023-02-17T09:07:26;98938.47;;;13.74;47.06
44385;BME280;30101;32.778;34.994;2023-02-17T09:12:30;98939.53;;;13.80;46.89
44385;BME280;30101;32.778;34.994;2023-02-17T09:17:36;98930.47;;;13.87;47.44
44385;BME280;30101;32.778;34.994;2023-02-17T09:22:39;98923.69;;;13.98;46.31
44385;BME280;30101;32.778;34.994;2023-02-17T09:27:43;98923.50;;;14.06;46.90
44385;BME280;30101;32.778;34.994;2023-02-17T09:32:46;98919.59;;;14.09;46.83
44385;BME280;30101;32.778;34.994;2023-02-17T09:37:49;98918.13;;;14.06;46.34
44385;BME280;30101;32.778;34.994;2023-02-17T09:42:52;98906.56;;;14.12;46.36
44385;BME280;30101;32.778;34.994;2023-02-17T09:47:57;98900.59;;;14.23;46.69
44385;BME280;30101;32.778;34.994;2023-02-17T09:58:39;98885.91;;;14.26;46.05
44385;BME280;30101;32.778;34.994;2023-02-17T10:03:46;98879.53;;;14.34;46.18
44385;BME280;30101;32.778;34.994;2023-02-17T10:09:14;98878.72;;;14.40;45.89
44385;BME280;30101;32.778;34.994;2023-02-17T10:14:30;98865.88;;;14.42;45.78
44385;BME280;30101;32.778;34.994;2023-02-17T10:19:52;98859.47;;;14.36;46.15
44385;BME280;30101;32.778;34.994;2023-02-17T10:24:59;98846.84;;;14.43;45.67
44385;BME280;30101;32.778;34.994;2023-02-17T10:35:55;98828.50;;;14.53;45.43
44385;BME280;30101;32.778;34.994;2023-02-17T10:41:05;98824.75;;;14.61;45.49
44385;BME280;30101;32.778;34.994;2023-02-17T10:46:14;98828.25;;;14.68;45.29
44385;BME280;30101;32.778;34.994;2023-02-17T10:51:24;98814.22;;;14.66;45.28
44385;BME280;30101;32.778;34.994;2023-02-17T10:56:37;98801.97;;;14.70;45.31
44385;BME280;30101;32.778;34.994;2023-02-17T11:01:42;98803.41;;;14.79;45.70
44385;BME280;30101;32.778;34.994;2023-02-17T11:06:51;98796.59;;;14.83;45.29
44385;BME280;30101;32.778;34.994;2023-02-17T11:12:01;98784.63;;;14.73;45.36
44385;BME280;30101;32.778;34.994;2023-02-17T11:17:25;98784.84;;;14.71;45.32
44385;BME280;30101;32.778;34.994;2023-02-17T11:22:38;98787.72;;;14.70;45.85
44385;BME280;30101;32.778;34.994;2023-02-17T11:28:31;98783.59;;;14.67;46.27
44385;BME280;30101;32.778;34.994;2023-02-17T11:33:20;98785.03;;;14.70;46.18
44385;BME280;30101;32.778;34.994;2023-02-17T11:43:51;98790.63;;;14.62;46.68
44385;BME280;30101;32.778;34.994;2023-02-17T12:09:45;98784.84;;;14.38;47.22
44385;BME280;30101;32.778;34.994;2023-02-17T12:14:58;98775.38;;;14.36;47.54
44385;BME280;30101;32.778;34.994;2023-02-17T12:20:30;98784.47;;;14.35;47.95
44385;BME280;30101;32.778;34.994;2023-02-17T12:36:18;98780.31;;;14.32;48.03
44385;BME280;30101;32.778;34.994;2023-02-17T12:41:25;98789.41;;;14.31;48.32
44385;BME280;30101;32.778;34.994;2023-02-17T12:51:51;98790.66;;;14.28;48.49
44385;BME280;30101;32.778;34.994;2023-02-17T12:57:07;98783.22;;;14.24;48.37
44385;BME280;30101;32.778;34.994;2023-02-17T13:02:17;98780.13;;;14.20;48.66
44385;BME280;30101;32.778;34.994;2023-02-17T13:07:52;98781.56;;;14.23;48.58
44385;BME280;30101;32.778;34.994;2023-02-17T13:13:02;98771.25;;;14.20;48.73
44385;BME280;30101;32.778;34.994;2023-02-17T13:18:11;98769.59;;;14.12;48.83
44385;BME280;30101;32.778;34.994;2023-02-17T13:23:28;98767.94;;;14.04;48.57
44385;BME280;30101;32.778;34.994;2023-02-17T13:28:34;98773.94;;;14.00;49.51
44385;BME280;30101;32.778;34.994;2023-02-17T13:33:42;98769.22;;;13.95;49.56
44385;BME280;30101;32.778;34.994;2023-02-17T13:38:54;98770.84;;;13.90;49.65
44385;BME280;30101;32.778;34.994;2023-02-17T13:43:58;98774.16;;;13.79;49.71
44385;BME280;30101;32.778;34.994;2023-02-17T13:49:04;98777.66;;;13.79;49.90
44385;BME280;30101;32.778;34.994;2023-02-17T13:54:10;98780.56;;;13.71;50.09
44385;BME280;30101;32.778;34.994;2023-02-17T13:59:15;98784.25;;;13.70;50.29
44385;BME280;30101;32.778;34.994;2023-02-17T14:04:22;98790.41;;;13.64;50.77
44385;BME280;30101;32.778;34.994;2023-02-17T14:09:29;98793.53;;;13.61;50.64
44385;BME280;30101;32.778;34.994;2023-02-17T14:14:35;98790.00;;;13.54;50.93
44385;BME280;30101;32.778;34.994;2023-02-17T14:19:47;98796.81;;;13.49;50.97
44385;BME280;30101;32.778;34.994;2023-02-17T14:25:24;98795.13;;;13.42;51.15
44385;BME280;30101;32.778;34.994;2023-02-17T14:30:36;98803.56;;;13.32;51.18
44385;BME280;30101;32.778;34.994;2023-02-17T14:35:58;98799.22;;;13.25;51.60
44385;BME280;30101;32.778;34.994;2023-02-17T14:41:07;98809.69;;;13.19;51.84
44385;BME280;30101;32.778;34.994;2023-02-17T14:46:10;98802.22;;;13.08;52.20
44385;BME280;30101;32.778;34.994;2023-02-17T14:51:16;98807.38;;;13.03;52.35
44385;BME280;30101;32.778;34.994;2023-02-17T14:56:32;98811.44;;;12.92;52.46
44385;BME280;30101;32.778;34.994;2023-02-17T15:01:36;98812.78;;;12.75;53.33
44385;BME280;30101;32.778;34.994;2023-02-17T15:06:50;98806.31;;;12.63;53.41
44385;BME280;30101;32.778;34.994;2023-02-17T15:11:54;98817.00;;;12.56;53.98
44385;BME280;30101;32.778;34.994;2023-02-17T15:16:59;98814.88;;;12.45;54.41
44385;BME280;30101;32.778;34.994;2023-02-17T15:22:03;98815.78;;;12.31;54.03
44385;BME280;30101;32.778;34.994;2023-02-17T15:27:11;98822.06;;;12.17;54.74
44385;BME280;30101;32.778;34.994;2023-02-17T15:32:16;98834.97;;;12.06;55.52
44385;BME280;30101;32.778;34.994;2023-02-17T15:37:20;98833.25;;;11.99;54.87
44385;BME280;30101;32.778;34.994;2023-02-17T15:42:24;98837.91;;;11.90;55.29
44385;BME280;30101;32.778;34.994;2023-02-17T15:47:28;98840.72;;;11.82;55.81
44385;BME280;30101;32.778;34.994;2023-02-17T15:52:31;98843.47;;;11.74;55.73
44385;BME280;30101;32.778;34.994;2023-02-17T15:57:36;98856.44;;;11.70;55.80
44385;BME280;30101;32.778;34.994;2023-02-17T16:02:41;98848.13;;;11.65;56.04
44385;BME280;30101;32.778;34.994;2023-02-17T16:07:45;98858.22;;;11.63;55.39
44385;BME280;30101;32.778;34.994;2023-02-17T16:12:49;98855.06;;;11.59;55.65
44385;BME280;30101;32.778;34.994;2023-02-17T16:17:53;98862.25;;;11.59;55.74
44385;BME280;30101;32.778;34.994;2023-02-17T16:22:56;98863.47;;;11.56;56.56
44385;BME280;30101;32.778;34.994;2023-02-17T16:28:00;98872.69;;;11.54;56.37
44385;BME280;30101;32.778;34.994;2023-02-17T16:33:04;98877.41;;;11.52;56.57
44385;BME280;30101;32.778;34.994;2023-02-17T16:38:16;98876.75;;;11.50;56.99
44385;BME280;30101;32.778;34.994;2023-02-17T16:43:25;98885.53;;;11.44;56.22
44385;BME280;30101;32.778;34.994;2023-02-17T16:48:31;98886.94;;;11.40;56.73
44385;BME280;30101;32.778;34.994;2023-02-17T16:53:35;98883.38;;;11.32;56.83
44385;BME280;30101;32.778;34.994;2023-02-17T16:58:39;98881.03;;;11.29;56.66
44385;BME280;30101;32.778;34.994;2023-02-17T17:03:42;98885.28;;;11.24;56.47
44385;BME280;30101;32.778;34.994;2023-02-17T17:08:46;98889.38;;;11.20;57.13
44385;BME280;30101;32.778;34.994;2023-02-17T17:13:49;98893.41;;;11.16;57.32
44385;BME280;30101;32.778;34.994;2023-02-17T17:18:53;98900.34;;;11.10;57.00
44385;BME280;30101;32.778;34.994;2023-02-17T17:23:56;98895.72;;;11.04;57.38
44385;BME280;30101;32.778;34.994;2023-02-17T17:28:59;98900.78;;;10.99;57.07
44385;BME280;30101;32.778;34.994;2023-02-17T17:34:02;98891.84;;;10.92;57.09
44385;BME280;30101;32.778;34.994;2023-02-17T17:39:10;98897.75;;;10.87;56.54
44385;BME280;30101;32.778;34.994;2023-02-17T17:44:15;98900.78;;;10.84;57.87
44385;BME280;30101;32.778;34.994;2023-02-17T17:49:19;98896.00;;;10.79;57.79
44385;BME280;30101;32.778;34.994;2023-02-17T17:54:22;98894.53;;;10.77;57.70
44385;BME280;30101;32.778;34.994;2023-02-17T17:59:25;98899.03;;;10.76;57.52
44385;BME280;30101;32.778;34.994;2023-02-17T18:04:28;98892.06;;;10.75;57.24
44385;BME280;30101;32.778;34.994;2023-02-17T18:09:34;98906.38;;;10.74;57.53
44385;BME280;30101;32.778;34.994;2023-02-17T18:14:40;98912.75;;;10.73;57.42
44385;BME280;30101;32.778;34.994;2023-02-17T18:19:45;98923.63;;;10.72;57.50
44385;BME280;30101;32.778;34.994;2023-02-17T18:24:49;98931.16;;;10.68;58.22
44385;BME280;30101;32.778;34.994;2023-02-17T18:29:53;98932.56;;;10.64;58.00
44385;BME280;30101;32.778;34.994;2023-02-17T18:34:56;98924.25;;;10.59;57.61
44385;BME280;30101;32.778;34.994;2023-02-17T18:40:01;98933.63;;;10.55;57.98
44385;BME280;30101;32.778;34.994;2023-02-17T18:45:05;98935.84;;;10.51;57.53
44385;BME280;30101;32.778;34.994;2023-02-17T18:50:12;98930.69;;;10.50;58.26
44385;BME280;30101;32.778;34.994;2023-02-17T18:55:17;98930.03;;;10.48;58.54
44385;BME280;30101;32.778;34.994;2023-02-17T19:00:20;98916.38;;;10.43;58.15
44385;BME280;30101;32.778;34.994;2023-02-17T19:05:25;98923.22;;;10.45;58.40
44385;BME280;30101;32.778;34.994;2023-02-17T19:10:28;98914.91;;;10.40;58.10
44385;BME280;30101;32.778;34.994;2023-02-17T19:15:31;98912.25;;;10.40;58.07
44385;BME280;30101;32.778;34.994;2023-02-17T19:20:34;98916.13;;;10.38;58.23
44385;BME280;30101;32.778;34.994;2023-02-17T19:25:38;98911.94;;;10.35;58.32
44385;BME280;30101;32.778;34.994;2023-02-17T19:30:41;98906.78;;;10.34;58.13
44385;BME280;30101;32.778;34.994;2023-02-17T19:35:44;98912.31;;;10.32;58.73
44385;BME280;30101;32.778;34.994;2023-02-17T19:40:47;98905.31;;;10.31;58.44
44385;BME280;30101;32.778;34.994;2023-02-17T19:45:50;98912.47;;;10.31;58.26
44385;BME280;30101;32.778;34.994;2023-02-17T19:50:58;98919.50;;;10.32;58.35
44385;BME280;30101;32.778;34.994;2023-02-17T19:56:19;98922.16;;;10.32;58.66
44385;BME280;30101;32.778;34.994;2023-02-17T20:01:25;98917.00;;;10.30;58.53
44385;BME280;30101;32.778;34.994;2023-02-17T20:06:33;98919.84;;;10.29;59.00
44385;BME280;30101;32.778;34.994;2023-02-17T20:11:39;98918.19;;;10.27;58.81
44385;BME280;30101;32.778;34.994;2023-02-17T20:16:43;98916.53;;;10.26;58.47
44385;BME280;30101;32.778;34.994;2023-02-17T20:21:46;98912.53;;;10.22;58.65
44385;BME280;30101;32.778;34.994;2023-02-17T20:26:52;98906.53;;;10.20;59.17
44385;BME280;30101;32.778;34.994;2023-02-17T20:31:55;98908.38;;;10.20;58.53
44385;BME280;30101;32.778;34.994;2023-02-17T20:36:58;98901.72;;;10.16;59.43
44385;BME280;30101;32.778;34.994;2023-02-17T20:42:01;98902.75;;;10.15;58.51
44385;BME280;30101;32.778;34.994;2023-02-17T20:47:05;98893.28;;;10.12;59.44
44385;BME280;30101;32.778;34.994;2023-02-17T20:52:08;98893.28;;;10.12;59.26
44385;BME280;30101;32.778;34.994;2023-02-17T20:57:13;98886.91;;;10.13;58.77
44385;BME280;30101;32.778;34.994;2023-02-17T21:02:16;98872.28;;;10.09;58.86
44385;BME280;30101;32.778;34.994;2023-02-17T21:07:19;98877.78;;;10.08;58.92
44385;BME280;30101;32.778;34.994;2023-02-17T21:12:23;98877.59;;;10.09;59.50
44385;BME280;30101;32.778;34.994;2023-02-17T21:17:26;98876.78;;;10.09;59.44
44385;BME280;30101;32.778;34.994;2023-02-17T21:22:30;98872.44;;;10.08;59.48
44385;BME280;30101;32.778;34.994;2023-02-17T21:27:33;98882.50;;;10.06;59.67
44385;BME280;30101;32.778;34.994;2023-02-17T21:32:37;98874.00;;;10.02;59.43
44385;BME280;30101;32.778;34.994;2023-02-17T21:37:40;98869.38;;;9.96;59.42
44385;BME280;30101;32.778;34.994;2023-02-17T21:42:43;98865.06;;;9.95;59.73
44385;BME280;30101;32.778;34.994;2023-02-17T21:47:47;98871.41;;;9.94;59.81
44385;BME280;30101;32.778;34.994;2023-02-17T21:52:51;98863.94;;;9.89;59.60
44385;BME280;30101;32.778;34.994;2023-02-17T21:57:54;98862.47;;;9.87;59.03
44385;BME280;30101;32.778;34.994;2023-02-17T22:02:57;98866.47;;;9.83;59.50
44385;BME280;30101;32.778;34.994;2023-02-17T22:08:00;98869.16;;;9.83;59.29
44385;BME280;30101;32.778;34.994;2023-02-17T22:13:04;98876.13;;;9.84;59.17
44385;BME280;30101;32.778;34.994;2023-02-17T22:18:07;98862.16;;;9.82;59.59
44385;BME280;30101;32.778;34.994;2023-02-17T22:23:10;98862.78;;;9.84;60.27
44385;BME280;30101;32.778;34.994;2023-02-17T22:28:14;98866.66;;;9.81;59.78
44385;BME280;30101;32.778;34.994;2023-02-17T22:33:17;98873.84;;;9.81;59.06
44385;BME280;30101;32.778;34.994;2023-02-17T22:38:21;98864.97;;;9.80;59.79
44385;BME280;30101;32.778;34.994;2023-02-17T22:43:24;98867.66;;;9.80;59.47
44385;BME280;30101;32.778;34.994;2023-02-17T22:48:28;98877.16;;;9.83;59.88
44385;BME280;30101;32.778;34.994;2023-02-17T22:53:33;98862.31;;;9.80;59.79
44385;BME280;30101;32.778;34.994;2023-02-17T22:58:37;98860.84;;;9.78;59.82
44385;BME280;30101;32.778;34.994;2023-02-17T23:03:41;98855.50;;;9.78;59.42
44385;BME280;30101;32.778;34.994;2023-02-17T23:08:45;98851.00;;;9.78;59.48
44385;BME280;30101;32.778;34.994;2023-02-17T23:13:48;98848.16;;;9.80;59.82
44385;BME280;30101;32.778;34.994;2023-02-17T23:18:52;98848.34;;;9.78;59.91
44385;BME280;30101;32.778;34.994;2023-02-17T23:23:55;98839.69;;;9.76;59.56
44385;BME280;30101;32.778;34.994;2023-02-17T23:28:58;98836.00;;;9.77;59.78
44385;BME280;30101;32.778;34.994;2023-02-17T23:34:02;98830.69;;;9.77;59.75
44385;BME280;30101;32.778;34.994;2023-02-17T23:39:05;98827.38;;;9.75;59.27
44385;BME280;30101;32.778;34.994;2023-02-17T23:44:10;98834.34;;;9.76;59.88
44385;BME280;30101;32.778;34.994;2023-02-17T23:49:16;98821.03;;;9.76;60.12
44385;BME280;30101;32.778;34.994;2023-02-17T23:54:20;98817.34;;;9.77;59.78
44385;BME280;30101;32.778;34.994;2023-02-17T23:59:23;98815.16;;;9.81;59.93
